Time;durP1;ratioP1;P1;durP2;ratioP2;P2;SDS_P1;SDS_P2;PMS_P1;PMS_P2;Temp;Humidity;BMP_temperature;BMP_pressure;BME280_temperature;BME280_humidity;BME280_pressure;Samples;Min_cycle;Max_cycle;Signal;HPM_P1;HPM_P2
2022/01/03 00:00:16;;;;;;;;;2.00;1.00;;;;;13.56;66.55;101172.09;5108334;27;45749;-79
2022/01/03 00:02:43;;;;;;;;;5.25;2.75;;;;;13.55;67.04;101170.44;5097112;27;45963;-79
2022/01/03 00:05:10;;;;;;;;;2.25;1.00;;;;;13.52;66.90;101179.38;5094524;27;45610;-79
2022/01/03 00:07:38;;;;;;;;;2.00;2.00;;;;;13.42;66.58;101166.09;5108166;27;46494;-80
2022/01/03 00:10:04;;;;;;;;;2.00;1.00;;;;;13.52;66.84;101171.50;5105499;27;45752;-76
2022/01/03 00:12:32;;;;;;;;;3.50;1.00;;;;;13.52;66.70;101187.28;5095841;27;45779;-77
2022/01/03 00:14:58;;;;;;;;;4.75;2.00;;;;;13.51;66.77;101188.25;5093849;27;47361;-76
2022/01/03 00:17:24;;;;;;;;;3.75;1.00;;;;;13.49;66.78;101186.69;5099218;27;45997;-79
2022/01/03 00:19:49;;;;;;;;;5.25;1.25;;;;;13.51;66.98;101190.88;5102016;27;45682;-79
2022/01/03 00:22:19;;;;;;;;;2.00;1.00;;;;;13.49;67.06;101184.91;5112704;27;45812;-81
2022/01/03 00:25:02;;;;;;;;;1.00;1.00;;;;;13.48;66.87;101191.09;5101689;27;47505;-78
2022/01/03 00:27:49;;;;;;;;;3.50;1.00;;;;;13.47;66.68;101192.06;5093562;27;46262;-78
2022/01/03 00:30:21;;;;;;;;;2.50;2.00;;;;;13.45;67.17;101194.78;5097510;27;45701;-82
2022/01/03 00:32:49;;;;;;;;;4.00;1.00;;;;;13.46;66.83;101203.53;5101719;27;45603;-80
2022/01/03 00:35:15;;;;;;;;;5.75;1.50;;;;;13.46;67.05;101190.38;5104730;27;46840;-79
2022/01/03 00:37:43;;;;;;;;;3.50;2.00;;;;;13.44;66.94;101203.63;5073755;27;46016;-77
2022/01/03 00:40:10;;;;;;;;;2.00;1.00;;;;;13.42;67.17;101213.47;5079621;27;45772;-79
2022/01/03 00:42:35;;;;;;;;;2.75;1.50;;;;;13.42;66.92;101215.25;5079727;27;45649;-77
2022/01/03 00:45:02;;;;;;;;;0.00;0.00;;;;;13.41;66.77;101211.78;5078908;27;46375;-80
2022/01/03 00:47:35;;;;;;;;;2.25;1.00;;;;;13.40;66.97;101207.44;5093560;27;46606;-77
2022/01/03 00:50:04;;;;;;;;;4.00;2.00;;;;;13.39;67.11;101221.56;5078585;27;45718;-77
2022/01/03 00:52:30;;;;;;;;;2.75;1.75;;;;;13.39;67.28;101203.13;5078743;27;45694;-78
2022/01/03 00:54:55;;;;;;;;;6.75;1.00;;;;;13.38;67.34;101206.75;5073343;27;46573;-76
2022/01/03 00:57:36;;;;;;;;;3.00;1.75;;;;;13.38;67.37;101206.75;5073570;27;46177;-80
2022/01/03 01:00:08;;;;;;;;;3.50;2.00;;;;;13.39;67.58;101205.75;5094583;27;45809;-77
2022/01/03 01:02:36;;;;;;;;;1.75;1.00;;;;;13.38;67.28;101209.38;5077091;27;45875;-76
2022/01/03 01:05:04;;;;;;;;;5.00;1.25;;;;;13.38;67.60;101204.13;5075139;28;45997;-75
2022/01/03 01:07:30;;;;;;;;;3.75;1.25;;;;;13.37;66.85;101209.47;5081150;27;47222;-77
2022/01/03 01:09:59;;;;;;;;;2.00;2.00;;;;;13.36;67.30;101213.91;5075836;27;45675;-76
2022/01/03 01:12:26;;;;;;;;;4.00;2.00;;;;;13.35;67.56;101217.47;5080976;27;45602;-78
2022/01/03 01:14:51;;;;;;;;;1.25;1.00;;;;;13.37;67.31;101222.63;5086218;27;46437;-75
2022/01/03 01:17:17;;;;;;;;;1.50;1.50;;;;;13.36;67.34;101218.31;5073922;28;46184;-75
2022/01/03 01:19:43;;;;;;;;;1.50;1.00;;;;;13.32;67.55;101212.44;5054118;28;46036;-76
2022/01/03 01:22:09;;;;;;;;;4.75;2.00;;;;;13.30;67.43;101208.25;5090551;27;46130;-77
2022/01/03 01:24:46;;;;;;;;;2.50;1.00;;;;;13.31;67.56;101209.91;5082313;27;47185;-79
2022/01/03 01:29:57;;;;;;;;;2.00;2.00;;;;;13.36;67.52;101210.44;5082762;27;45745;-77
2022/01/03 01:32:23;;;;;;;;;4.50;1.00;;;;;13.38;67.29;101206.75;5072051;28;45802;-75
2022/01/03 01:34:51;;;;;;;;;3.50;1.00;;;;;13.40;67.43;101207.44;5086235;27;45685;-78
2022/01/03 01:37:20;;;;;;;;;0.25;0.25;;;;;13.42;67.53;101199.44;5103534;27;47276;-78
2022/01/03 01:39:48;;;;;;;;;4.00;2.00;;;;;13.43;67.52;101203.78;5093006;27;45831;-74
2022/01/03 01:42:17;;;;;;;;;3.75;1.00;;;;;13.43;67.22;101199.34;5098475;27;45781;-79
2022/01/03 01:44:48;;;;;;;;;1.25;1.00;;;;;13.44;67.66;101214.16;5092485;27;46433;-77
2022/01/03 01:47:16;;;;;;;;;2.50;2.00;;;;;13.40;67.20;101203.97;5092342;27;47373;-76
2022/01/03 01:49:46;;;;;;;;;0.75;0.75;;;;;13.41;67.14;101216.19;5092238;27;45720;-74
2022/01/03 01:52:22;;;;;;;;;3.75;2.00;;;;;13.40;67.22;101203.97;5105236;27;45660;-77
2022/01/03 01:54:56;;;;;;;;;3.00;1.00;;;;;13.40;67.48;101196.94;5095059;27;46803;-75
2022/01/03 01:57:36;;;;;;;;;1.50;0.00;;;;;13.39;67.73;101191.75;5077743;27;48165;-77
2022/01/03 02:00:10;;;;;;;;;2.75;1.00;;;;;13.40;67.37;101186.41;5106604;27;45652;-76
2022/01/03 02:02:54;;;;;;;;;1.25;1.00;;;;;13.38;67.66;101175.16;5090743;27;45934;-76
2022/01/03 02:05:43;;;;;;;;;2.50;2.00;;;;;13.37;67.32;101178.75;5096103;27;45706;-76
2022/01/03 02:08:17;;;;;;;;;2.25;1.25;;;;;13.34;67.34;101184.22;5104819;27;45926;-79
2022/01/03 02:10:55;;;;;;;;;3.50;1.75;;;;;13.32;67.67;101190.56;5099378;27;46059;-76
2022/01/03 02:13:21;;;;;;;;;2.00;1.00;;;;;13.30;67.39;101195.06;5095758;27;46071;-75
2022/01/03 02:15:56;;;;;;;;;2.50;1.50;;;;;13.24;67.36;101182.38;5101426;27;45666;-75
2022/01/03 02:18:22;;;;;;;;;1.50;1.00;;;;;13.29;67.81;101201.28;5116400;27;45946;-79
2022/01/03 02:20:48;;;;;;;;;2.00;2.00;;;;;13.26;67.74;101201.53;5102108;27;46083;-79
2022/01/03 02:23:13;;;;;;;;;2.00;1.00;;;;;13.26;67.60;101197.09;5116540;27;45794;-78
2022/01/03 02:25:39;;;;;;;;;2.25;1.00;;;;;13.19;67.35;101185.34;5096316;27;45561;-79
2022/01/03 02:28:04;;;;;;;;;2.50;1.00;;;;;13.22;67.57;101190.41;5090921;27;45966;-75
2022/01/03 02:30:32;;;;;;;;;3.75;1.00;;;;;13.20;67.67;101192.28;5101913;27;45531;-80
2022/01/03 02:32:57;;;;;;;;;4.00;1.00;;;;;13.19;67.69;101187.13;5102411;27;45767;-77
2022/01/03 02:35:23;;;;;;;;;3.00;1.00;;;;;13.20;67.78;101202.81;5105255;27;46275;-79
2022/01/03 02:37:50;;;;;;;;;2.00;1.00;;;;;13.19;67.91;101211.66;5075540;27;47115;-80
2022/01/03 02:40:17;;;;;;;;;2.00;1.00;;;;;13.24;67.78;101212.16;5078868;27;45758;-79
2022/01/03 02:42:43;;;;;;;;;2.00;1.00;;;;;13.15;67.71;101201.47;5086172;27;45740;-80
2022/01/03 02:45:10;;;;;;;;;2.00;1.50;;;;;13.25;67.49;101216.47;5086065;27;46467;-79
2022/01/03 02:47:36;;;;;;;;;1.25;1.00;;;;;13.25;67.44;101198.06;5078285;27;46198;-79
2022/01/03 02:50:04;;;;;;;;;2.00;1.75;;;;;13.25;67.68;101200.69;5075402;27;45887;-80
2022/01/03 02:52:29;;;;;;;;;1.00;1.00;;;;;13.24;67.96;101201.63;5088885;27;45724;-78
2022/01/03 02:54:56;;;;;;;;;4.75;1.00;;;;;13.25;67.58;101215.63;5075733;27;46270;-78
2022/01/03 02:57:23;;;;;;;;;3.50;1.00;;;;;13.22;67.75;101207.97;5074967;27;45673;-80
2022/01/03 02:59:56;;;;;;;;;2.75;1.75;;;;;13.24;68.03;101206.06;5087989;27;45554;-76
2022/01/03 03:02:24;;;;;;;;;3.25;1.00;;;;;13.26;67.80;101209.41;5074719;27;45793;-78
2022/01/03 03:04:55;;;;;;;;;4.75;1.75;;;;;13.24;67.99;101201.63;5074336;28;47317;-79
2022/01/03 03:07:22;;;;;;;;;2.00;1.25;;;;;13.24;67.64;101191.09;5075133;27;46484;-77
2022/01/03 03:09:47;;;;;;;;;4.00;1.50;;;;;13.23;68.08;101178.91;5074394;28;45728;-76
2022/01/03 03:12:13;;;;;;;;;2.00;1.25;;;;;13.25;68.15;101181.41;5074480;27;45638;-77
2022/01/03 03:14:39;;;;;;;;;2.50;0.75;;;;;13.19;67.61;101166.06;5074992;28;45623;-76
2022/01/03 03:17:05;;;;;;;;;2.00;2.00;;;;;13.22;67.65;101165.88;5075032;27;45656;-76
2022/01/03 03:19:30;;;;;;;;;2.00;1.00;;;;;13.26;68.13;101181.31;5074338;27;46098;-75
2022/01/03 03:21:56;;;;;;;;;3.50;1.00;;;;;13.26;68.02;101176.06;5088210;27;45930;-77
2022/01/03 03:24:21;;;;;;;;;2.25;1.75;;;;;13.27;67.64;101171.63;5081617;27;47470;-75
2022/01/03 03:26:47;;;;;;;;;3.00;1.00;;;;;13.27;68.24;101176.91;5074404;27;45969;-78
2022/01/03 03:29:12;;;;;;;;;0.75;0.25;;;;;13.23;67.67;101165.72;5074121;27;45984;-74
2022/01/03 03:31:37;;;;;;;;;1.50;0.25;;;;;13.28;68.14;101170.69;5076286;27;45973;-79
2022/01/03 03:34:04;;;;;;;;;2.00;0.75;;;;;13.28;67.79;101173.31;5083686;27;46936;-76
2022/01/03 03:36:30;;;;;;;;;6.00;1.25;;;;;13.26;68.06;101162.91;5073493;27;46316;-76
2022/01/03 03:38:55;;;;;;;;;2.00;1.00;;;;;13.29;67.59;101175.81;5074271;27;46075;-73
2022/01/03 03:41:21;;;;;;;;;3.25;1.75;;;;;13.29;67.72;101169.72;5076846;27;45684;-75
2022/01/03 03:43:46;;;;;;;;;2.00;0.25;;;;;13.32;68.10;101166.88;5094707;27;46404;-75
2022/01/03 03:46:11;;;;;;;;;3.50;1.00;;;;;13.33;67.60;101163.28;5078279;27;46563;-76
2022/01/03 03:48:39;;;;;;;;;4.25;2.00;;;;;13.32;67.51;101161.59;5081156;27;46170;-78
2022/01/03 03:51:04;;;;;;;;;4.50;1.00;;;;;13.33;67.62;101158.03;5079312;27;45607;-80
2022/01/03 03:53:29;;;;;;;;;2.00;0.75;;;;;13.32;68.04;101156.34;5073801;27;45657;-76
2022/01/03 03:55:55;;;;;;;;;3.75;2.00;;;;;13.32;68.06;101151.94;5073956;27;47274;-77
2022/01/03 03:58:20;;;;;;;;;8.00;3.00;;;;;13.36;68.01;101155.16;5083830;27;45795;-75
2022/01/03 04:00:46;;;;;;;;;3.25;1.00;;;;;13.32;67.78;101157.19;5074010;27;45582;-81
2022/01/03 04:03:11;;;;;;;;;4.00;2.00;;;;;13.35;67.82;101146.41;5081692;27;46635;-77
2022/01/03 04:05:36;;;;;;;;;3.00;2.00;;;;;13.37;67.92;101143.69;5094435;27;46062;-78
2022/01/03 04:08:02;;;;;;;;;5.25;1.00;;;;;13.37;67.57;101133.16;5086819;27;45744;-76
2022/01/03 04:10:27;;;;;;;;;1.50;0.50;;;;;13.36;68.16;101134.94;5078644;27;45584;-77
2022/01/03 04:12:53;;;;;;;;;1.00;1.00;;;;;13.36;68.06;101134.94;5078737;27;45628;-78
2022/01/03 04:15:18;;;;;;;;;3.00;1.50;;;;;13.35;68.03;101130.63;5080783;27;46084;-76
2022/01/03 04:17:43;;;;;;;;;2.75;2.00;;;;;13.36;68.19;101127.06;5076904;27;45645;-81
2022/01/03 04:20:12;;;;;;;;;1.50;1.00;;;;;13.38;67.95;101127.78;5075116;27;45645;-78
2022/01/03 04:22:37;;;;;;;;;5.75;2.75;;;;;13.36;68.19;101134.09;5087184;27;46340;-76
2022/01/03 04:25:03;;;;;;;;;3.25;1.00;;;;;13.37;68.10;101126.09;5076611;27;45625;-79
2022/01/03 04:27:29;;;;;;;;;1.00;1.00;;;;;13.32;68.20;101116.88;5088578;27;45704;-78
2022/01/03 04:29:54;;;;;;;;;3.00;1.50;;;;;13.24;67.97;101098.16;5076143;27;45711;-78
2022/01/03 04:32:19;;;;;;;;;4.00;2.00;;;;;13.37;68.28;101120.84;5072378;27;47316;-79
2022/01/03 04:34:45;;;;;;;;;4.00;1.00;;;;;13.37;67.98;101122.63;5080613;27;46101;-76
2022/01/03 04:37:10;;;;;;;;;1.50;1.00;;;;;13.32;68.13;101112.44;5114025;27;45660;-79
2022/01/03 04:39:36;;;;;;;;;3.00;1.00;;;;;13.34;67.74;101110.53;5080992;27;45839;-79
2022/01/03 04:42:02;;;;;;;;;3.75;1.50;;;;;13.30;68.16;101097.72;5087552;27;47938;-76
2022/01/03 04:44:27;;;;;;;;;2.00;0.75;;;;;13.29;68.10;101096.88;5107457;27;46209;-80
2022/01/03 04:46:55;;;;;;;;;2.00;1.00;;;;;13.35;68.07;101109.56;5102078;27;45577;-78
2022/01/03 04:49:20;;;;;;;;;3.25;1.00;;;;;13.34;68.11;101101.78;5097527;27;45784;-79
2022/01/03 04:51:45;;;;;;;;;2.25;2.00;;;;;13.35;67.94;101098.22;5106002;27;45718;-78
2022/01/03 04:54:11;;;;;;;;;3.75;2.25;;;;;13.35;67.84;101103.47;5105976;27;46969;-77
2022/01/03 04:56:36;;;;;;;;;1.50;0.75;;;;;13.33;68.21;101111.47;5112095;27;45728;-77
2022/01/03 04:59:02;;;;;;;;;2.00;1.50;;;;;13.33;68.02;101111.47;5097840;27;45846;-77
2022/01/03 05:01:28;;;;;;;;;5.25;1.00;;;;;13.29;68.19;101102.13;5113377;27;47538;-79
2022/01/03 05:03:54;;;;;;;;;3.25;1.00;;;;;13.29;68.17;101099.50;5114074;27;46225;-78
2022/01/03 05:06:19;;;;;;;;;3.00;1.00;;;;;13.17;68.29;101078.53;5104766;27;46035;-78
2022/01/03 05:08:45;;;;;;;;;2.25;1.25;;;;;13.28;68.15;101103.06;5101179;27;45571;-77
2022/01/03 05:11:11;;;;;;;;;4.50;1.25;;;;;13.23;68.24;101086.78;5093648;27;46479;-77
2022/01/03 05:13:36;;;;;;;;;4.25;1.00;;;;;13.27;67.75;101084.78;5093167;27;47196;-77
2022/01/03 05:16:02;;;;;;;;;2.25;1.00;;;;;13.26;67.83;101086.59;5093407;27;45556;-75
2022/01/03 05:18:28;;;;;;;;;2.50;1.75;;;;;13.25;68.11;101090.16;5093342;27;45604;-78
2022/01/03 05:20:53;;;;;;;;;1.25;1.25;;;;;13.24;68.21;101085.84;5086299;27;47562;-78
2022/01/03 05:23:19;;;;;;;;;3.75;1.00;;;;;13.19;67.90;101079.25;5107328;27;47082;-78
2022/01/03 05:25:45;;;;;;;;;2.75;1.00;;;;;13.24;68.15;101098.16;5093219;27;45788;-80
2022/01/03 05:28:11;;;;;;;;;1.00;0.00;;;;;13.21;68.25;101088.72;5094234;27;45680;-79
2022/01/03 05:30:37;;;;;;;;;4.25;2.00;;;;;13.17;68.16;101081.19;5106666;27;46628;-81
2022/01/03 05:33:02;;;;;;;;;3.25;1.00;;;;;13.18;68.10;101091.56;5096691;27;47278;-78
2022/01/03 05:35:28;;;;;;;;;2.75;1.00;;;;;13.12;68.18;101081.50;5109971;27;45616;-79
2022/01/03 05:37:53;;;;;;;;;3.75;1.25;;;;;13.16;68.48;101087.38;5097329;27;45863;-75
2022/01/03 05:40:19;;;;;;;;;3.75;1.00;;;;;13.14;68.38;101086.66;5108088;27;46246;-75
2022/01/03 05:42:46;;;;;;;;;1.00;0.50;;;;;13.15;68.03;101090.97;5099689;27;46473;-73
2022/01/03 05:45:12;;;;;;;;;3.25;1.00;;;;;13.12;68.47;101092.00;5099558;27;45677;-74
2022/01/03 05:47:40;;;;;;;;;2.75;1.00;;;;;13.15;68.16;101090.97;5098991;27;45615;-73
2022/01/03 05:50:06;;;;;;;;;3.25;2.00;;;;;13.14;68.51;101090.13;5096229;27;45647;-74
2022/01/03 05:52:33;;;;;;;;;5.00;0.50;;;;;13.08;68.29;101074.75;5095268;27;46186;-74
2022/01/03 05:54:58;;;;;;;;;1.75;1.00;;;;;13.11;68.51;101082.44;5095947;27;46269;-74
2022/01/03 05:57:24;;;;;;;;;1.00;0.00;;;;;13.14;68.37;101089.28;5098346;27;45675;-77
2022/01/03 05:59:50;;;;;;;;;3.00;1.00;;;;;13.08;68.15;101081.81;5112024;27;45710;-80
2022/01/03 06:02:16;;;;;;;;;3.00;1.00;;;;;13.11;68.78;101092.13;5097578;27;46918;-75
2022/01/03 06:07:19;;;;;;;;;2.75;1.00;;;;;13.13;68.17;101098.13;5096254;27;45695;-78
2022/01/03 06:09:45;;;;;;;;;3.25;1.50;;;;;13.12;68.72;101092.00;5095747;27;46553;-77
2022/01/03 06:12:10;;;;;;;;;3.50;0.75;;;;;13.13;68.66;101098.97;5109644;27;47010;-76
2022/01/03 06:14:37;;;;;;;;;2.50;1.00;;;;;13.08;68.29;101082.66;5107004;27;45600;-77
2022/01/03 06:17:04;;;;;;;;;1.00;0.00;;;;;13.08;68.77;101090.53;5077536;27;45633;-80
2022/01/03 06:19:29;;;;;;;;;1.50;1.00;;;;;13.08;68.45;101093.16;5095736;27;46796;-79
2022/01/03 06:21:56;;;;;;;;;1.75;1.00;;;;;13.09;68.91;101094.00;5108680;27;47415;-80
2022/01/03 06:24:22;;;;;;;;;1.25;0.25;;;;;13.04;68.80;101091.72;5096371;27;45648;-77
2022/01/03 06:26:49;;;;;;;;;1.75;1.00;;;;;13.06;68.58;101091.63;5112300;27;46061;-77
2022/01/03 06:29:15;;;;;;;;;4.75;2.50;;;;;13.08;69.02;101095.81;5097347;27;48082;-75
2022/01/03 06:31:42;;;;;;;;;2.25;1.25;;;;;13.03;68.92;101087.41;5098779;27;47693;-81
2022/01/03 06:34:07;;;;;;;;;3.00;1.00;;;;;13.03;68.45;101083.00;5098388;27;45577;-76
2022/01/03 06:36:33;;;;;;;;;4.00;2.00;;;;;13.08;68.86;101087.06;5109206;27;45572;-79
2022/01/03 06:39:00;;;;;;;;;5.00;1.00;;;;;13.08;68.51;101077.38;5095351;27;47204;-79
2022/01/03 06:41:26;;;;;;;;;2.50;1.75;;;;;13.07;68.86;101075.69;5095334;27;46158;-74
2022/01/03 06:43:52;;;;;;;;;2.75;1.00;;;;;13.10;68.58;101069.38;5077764;27;45758;-80
2022/01/03 06:46:18;;;;;;;;;1.50;0.00;;;;;13.04;68.90;101058.38;5109971;27;45765;-79
2022/01/03 06:48:45;;;;;;;;;3.00;1.00;;;;;13.11;68.92;101060.53;5105608;27;45638;-79
2022/01/03 06:51:12;;;;;;;;;2.75;2.00;;;;;13.12;68.75;101062.25;5094861;27;45936;-77
2022/01/03 06:53:37;;;;;;;;;1.50;1.00;;;;;13.11;68.91;101071.91;5095854;27;45685;-79
2022/01/03 06:56:03;;;;;;;;;1.75;0.75;;;;;13.11;68.69;101065.81;5095989;27;45715;-78
2022/01/03 06:58:28;;;;;;;;;2.00;1.50;;;;;13.06;68.69;101055.63;5098041;27;45990;-80
2022/01/03 07:00:54;;;;;;;;;3.75;1.00;;;;;13.10;69.09;101070.22;5108983;27;45777;-79
2022/01/03 07:03:19;;;;;;;;;4.00;1.00;;;;;12.99;69.00;101054.41;5095355;27;46110;-75
2022/01/03 07:05:45;;;;;;;;;4.25;2.00;;;;;13.02;68.61;101062.91;5100382;27;45515;-80
2022/01/03 07:08:10;;;;;;;;;5.00;2.00;;;;;13.07;68.68;101062.53;5109663;27;46315;-76
2022/01/03 07:10:36;;;;;;;;;3.00;1.50;;;;;13.06;68.81;101036.38;5093413;27;47191;-77
2022/01/03 07:13:01;;;;;;;;;3.00;1.00;;;;;13.03;68.83;101035.63;5098158;27;45502;-80
2022/01/03 07:21:02;;;;;;;;;3.00;1.50;;;;;12.94;68.89;101033.72;5099947;27;45703;-75
2022/01/03 07:23:27;;;;;;;;;2.00;0.75;;;;;12.95;69.23;101037.19;5099988;27;45722;-75
2022/01/03 07:25:53;;;;;;;;;4.50;2.00;;;;;13.04;69.00;101042.59;5095358;27;45739;-78
2022/01/03 07:28:19;;;;;;;;;1.75;1.00;;;;;13.00;69.23;101035.88;5094884;27;46489;-75
2022/01/03 07:30:44;;;;;;;;;1.50;1.00;;;;;13.01;68.75;101036.69;5103451;27;46122;-76
2022/01/03 07:33:10;;;;;;;;;6.00;2.00;;;;;13.01;69.29;101036.69;5111091;27;45506;-78
2022/01/03 07:35:37;;;;;;;;;3.00;2.00;;;;;13.03;69.34;101033.00;5103839;27;45600;-81
2022/01/03 07:38:03;;;;;;;;;1.75;1.00;;;;;13.06;69.05;101031.13;5102876;27;46387;-79
2022/01/03 07:40:29;;;;;;;;;1.75;1.00;;;;;13.02;69.08;101033.97;5094111;27;46330;-77
2022/01/03 07:42:58;;;;;;;;;5.00;2.25;;;;;13.06;69.04;101025.84;5094077;27;45767;-76
2022/01/03 07:45:25;;;;;;;;;2.25;2.00;;;;;13.05;68.99;101027.66;5076097;27;45747;-76
2022/01/03 07:47:51;;;;;;;;;6.25;1.75;;;;;13.06;69.06;101034.59;5094320;27;46647;-79
2022/01/03 07:50:16;;;;;;;;;2.25;1.50;;;;;13.04;69.02;101021.53;5103546;27;46216;-78
2022/01/03 07:52:42;;;;;;;;;2.25;1.00;;;;;13.08;69.34;101023.94;5097253;27;45703;-77
2022/01/03 07:55:11;;;;;;;;;6.25;2.00;;;;;13.08;69.37;101019.50;5101425;27;45751;-74
2022/01/03 07:57:37;;;;;;;;;1.75;1.25;;;;;12.97;69.38;101011.59;5099958;27;45741;-77
2022/01/03 08:00:12;;;;;;;;;1.00;1.00;;;;;13.03;69.34;101016.38;5106009;27;46150;-79
2022/01/03 08:02:40;;;;;;;;;4.00;3.00;;;;;13.09;69.39;101023.81;5096841;27;45839;-78
2022/01/03 08:05:08;;;;;;;;;4.75;3.00;;;;;13.04;69.47;101007.56;5079990;27;45987;-80
2022/01/03 08:07:33;;;;;;;;;2.50;2.00;;;;;13.01;69.40;101008.59;5097417;27;46554;-79
2022/01/03 08:09:58;;;;;;;;;2.75;1.00;;;;;13.09;69.49;101018.56;5093626;27;45809;-76
2022/01/03 08:12:24;;;;;;;;;1.50;1.00;;;;;13.08;69.26;101009.00;5098365;27;45754;-79
2022/01/03 08:14:49;;;;;;;;;2.50;2.50;;;;;13.10;69.44;101015.00;5096437;27;45711;-80
2022/01/03 08:17:14;;;;;;;;;4.00;2.00;;;;;13.07;69.25;101003.84;5107877;27;46976;-77
2022/01/03 08:19:40;;;;;;;;;5.00;2.00;;;;;13.10;69.19;101011.50;5093780;27;45801;-78
2022/01/03 08:22:05;;;;;;;;;3.25;1.50;;;;;13.02;69.19;100994.50;5093532;27;45957;-78
2022/01/03 08:24:31;;;;;;;;;2.00;2.00;;;;;13.11;69.19;101011.41;5094012;27;45840;-77
2022/01/03 08:26:56;;;;;;;;;3.25;2.00;;;;;13.12;69.59;101007.03;5093258;27;45654;-77
2022/01/03 08:29:21;;;;;;;;;3.00;1.00;;;;;13.06;69.57;100989.03;5101838;27;46824;-75
2022/01/03 08:31:47;;;;;;;;;2.75;2.00;;;;;13.14;69.17;101000.66;5110173;27;45604;-76
2022/01/03 08:34:13;;;;;;;;;3.00;1.00;;;;;13.13;69.62;100996.34;5101560;27;45802;-79
2022/01/03 08:36:38;;;;;;;;;2.25;1.50;;;;;13.16;69.24;101011.09;5080316;27;46596;-77
2022/01/03 08:39:05;;;;;;;;;4.50;2.00;;;;;13.18;69.12;101006.53;5075140;27;45634;-78
2022/01/03 08:41:30;;;;;;;;;3.00;1.50;;;;;13.13;69.42;100996.34;5074912;27;45838;-79
2022/01/03 08:43:56;;;;;;;;;5.00;4.00;;;;;13.15;69.23;100994.47;5075031;27;45920;-78
2022/01/03 08:46:23;;;;;;;;;3.25;1.75;;;;;13.22;69.73;101005.38;5078784;27;46414;-79
2022/01/03 08:48:50;;;;;;;;;3.50;2.50;;;;;13.23;69.59;100993.88;5073408;28;45946;-80
2022/01/03 08:51:15;;;;;;;;;2.75;2.00;;;;;13.23;69.29;100996.50;5072657;28;45743;-80
2022/01/03 08:53:40;;;;;;;;;4.00;3.00;;;;;13.22;69.55;100994.84;5073443;28;45570;-78
2022/01/03 08:56:06;;;;;;;;;5.00;2.00;;;;;13.23;69.65;100983.34;5073224;27;47216;-80
2022/01/03 08:58:31;;;;;;;;;1.50;1.00;;;;;13.18;69.31;100974.97;5056937;28;47052;-75
2022/01/03 09:00:57;;;;;;;;;5.25;2.00;;;;;13.23;69.28;100984.19;5086104;27;45657;-78
2022/01/03 09:03:22;;;;;;;;;2.00;0.75;;;;;13.23;69.63;100988.59;5072366;27;45833;-79
2022/01/03 09:05:49;;;;;;;;;4.00;1.00;;;;;13.22;69.71;100979.06;5086495;27;45755;-76
2022/01/03 09:08:16;;;;;;;;;2.50;2.00;;;;;13.24;69.87;100990.28;5072973;27;47042;-79
2022/01/03 09:10:43;;;;;;;;;2.00;2.00;;;;;13.25;69.78;100986.69;5072608;27;46208;-80
2022/01/03 09:13:08;;;;;;;;;4.25;1.00;;;;;13.27;69.70;100984.81;5073613;27;45982;-82
2022/01/03 09:15:34;;;;;;;;;1.25;1.00;;;;;13.27;69.71;100988.28;5073133;28;46057;-79
2022/01/03 09:17:59;;;;;;;;;4.75;2.00;;;;;13.28;69.42;100979.41;5073922;27;46068;-78
2022/01/03 09:20:24;;;;;;;;;5.00;2.50;;;;;13.30;69.64;100990.66;5091090;27;46049;-76
2022/01/03 09:22:53;;;;;;;;;5.25;4.00;;;;;13.31;69.61;100989.72;5083792;27;45946;-79
2022/01/03 09:30:34;;;;;;;;;3.25;1.75;;;;;13.35;69.87;100987.66;5078669;27;45724;-75
2022/01/03 09:33:00;;;;;;;;;1.50;1.00;;;;;13.37;69.57;100986.63;5090403;27;46054;-78
2022/01/03 09:35:25;;;;;;;;;5.25;2.25;;;;;13.41;69.59;100987.22;5077351;27;45752;-77
2022/01/03 09:37:51;;;;;;;;;2.50;1.75;;;;;13.40;69.44;100981.09;5094815;27;46566;-78
2022/01/03 09:40:17;;;;;;;;;1.75;1.00;;;;;13.42;69.49;100979.19;5108009;27;45919;-78
2022/01/03 09:42:47;;;;;;;;;4.50;2.75;;;;;13.42;69.95;100975.72;5094270;27;45693;-80
2022/01/03 09:45:15;;;;;;;;;2.00;1.00;;;;;13.46;69.93;100977.16;5094411;27;46510;-76
2022/01/03 09:47:43;;;;;;;;;0.75;0.00;;;;;13.47;69.89;100983.25;5097118;27;46128;-77
2022/01/03 09:50:12;;;;;;;;;3.00;1.75;;;;;13.47;69.79;100992.00;5106506;27;45615;-76
2022/01/03 09:52:39;;;;;;;;;2.00;1.25;;;;;13.46;69.93;100977.16;5095963;27;45593;-79
2022/01/03 09:55:06;;;;;;;;;4.75;2.00;;;;;13.45;70.04;100996.53;5111780;27;47439;-79
2022/01/03 09:57:32;;;;;;;;;3.50;2.50;;;;;13.40;69.87;100975.00;5113633;27;45996;-79
2022/01/03 10:00:01;;;;;;;;;2.00;1.00;;;;;13.48;69.99;100990.22;5086428;27;45752;-74
2022/01/03 10:02:27;;;;;;;;;7.00;2.00;;;;;13.48;70.02;100990.22;5105553;27;45549;-77
2022/01/03 10:04:53;;;;;;;;;4.50;2.00;;;;;13.50;69.81;100983.00;5107459;27;46013;-79
2022/01/03 10:07:20;;;;;;;;;4.25;1.00;;;;;13.48;69.86;100980.53;5095849;27;47394;-75
2022/01/03 10:09:46;;;;;;;;;2.25;1.25;;;;;13.48;69.91;100964.72;5095417;27;45754;-79
2022/01/03 10:12:14;;;;;;;;;3.25;2.25;;;;;13.53;69.99;100977.53;5095115;27;45831;-77
2022/01/03 10:14:41;;;;;;;;;0.00;0.00;;;;;13.54;69.47;100972.16;5105220;27;47664;-75
2022/01/03 10:17:07;;;;;;;;;1.75;1.00;;;;;13.54;69.70;100980.06;5103221;27;46887;-77
2022/01/03 10:19:54;;;;;;;;;3.00;2.00;;;;;13.51;69.66;100964.47;5088676;27;45987;-78
2022/01/03 10:22:30;;;;;;;;;2.00;1.25;;;;;13.54;70.07;100964.25;5101086;27;45690;-79
2022/01/03 10:24:57;;;;;;;;;3.50;1.50;;;;;13.55;69.70;100962.47;5106934;27;45655;-78
2022/01/03 10:27:24;;;;;;;;;4.75;2.00;;;;;13.55;69.58;100960.66;5096112;27;46043;-78
2022/01/03 10:29:56;;;;;;;;;5.50;3.00;;;;;13.54;70.12;100961.63;5105326;27;45555;-79
2022/01/03 10:32:27;;;;;;;;;5.00;2.00;;;;;13.53;70.03;100952.03;5095573;27;45704;-80
2022/01/03 10:34:57;;;;;;;;;6.00;3.00;;;;;13.55;69.70;100939.59;5109135;27;46462;-79
2022/01/03 10:37:35;;;;;;;;;7.75;3.00;;;;;13.55;69.50;100933.50;5095357;27;47139;-77
2022/01/03 10:40:17;;;;;;;;;2.50;0.75;;;;;13.54;69.71;100934.47;5076544;27;45602;-77
2022/01/03 10:42:43;;;;;;;;;3.75;2.00;;;;;13.58;69.86;100936.72;5095281;27;45827;-79
2022/01/03 10:45:08;;;;;;;;;4.00;2.75;;;;;13.59;69.70;100933.16;5095689;27;45544;-79
2022/01/03 10:47:34;;;;;;;;;2.00;2.00;;;;;13.59;69.83;100914.72;5108652;27;46650;-79
2022/01/03 10:50:13;;;;;;;;;1.75;1.25;;;;;13.53;69.93;100898.56;5115313;27;45529;-79
2022/01/03 10:52:42;;;;;;;;;5.00;1.50;;;;;13.59;69.46;100904.19;5100258;27;45828;-75
2022/01/03 10:55:16;;;;;;;;;1.00;0.75;;;;;13.63;69.54;100913.50;5095330;27;46662;-78
2022/01/03 10:58:04;;;;;;;;;3.75;1.00;;;;;13.63;69.51;100888.97;5096930;27;46402;-79
2022/01/03 11:00:34;;;;;;;;;4.25;2.75;;;;;13.64;69.37;100904.66;5115348;27;45729;-78
2022/01/03 11:03:29;;;;;;;;;1.25;1.00;;;;;13.65;69.90;100900.22;5101688;27;45674;-77
2022/01/03 11:06:01;;;;;;;;;2.00;2.00;;;;;13.65;69.47;100902.88;5098358;27;45734;-79
2022/01/03 11:11:14;;;;;;;;;1.75;1.75;;;;;13.68;69.78;100882.38;5094551;27;45660;-81
2022/01/03 11:13:42;;;;;;;;;2.00;1.75;;;;;13.70;69.64;100883.13;5095016;27;45800;-76
2022/01/03 11:16:10;;;;;;;;;84.25;66.25;;;;;13.71;69.66;100884.75;5094764;27;46860;-74
2022/01/03 11:18:48;;;;;;;;;42.25;32.50;;;;;13.77;69.31;100886.06;5095437;27;46134;-77
2022/01/03 11:21:17;;;;;;;;;39.75;33.75;;;;;13.79;69.33;100887.63;5104635;27;45714;-76
2022/01/03 11:23:44;;;;;;;;;4.25;3.75;;;;;13.79;69.22;100876.25;5106924;27;45719;-78
2022/01/03 11:26:12;;;;;;;;;1.75;1.00;;;;;13.83;69.40;100867.16;5110308;27;46870;-79
2022/01/03 11:28:39;;;;;;;;;3.25;2.00;;;;;13.82;69.36;100854.94;5112023;27;46547;-78
2022/01/03 11:31:06;;;;;;;;;2.25;1.00;;;;;13.80;69.18;100849.81;5106946;27;45810;-77
2022/01/03 11:33:35;;;;;;;;;3.00;2.00;;;;;13.88;69.05;100868.44;5103061;27;45786;-75
2022/01/03 11:36:02;;;;;;;;;3.00;2.25;;;;;13.90;69.27;100851.69;5109610;27;46743;-76
2022/01/03 11:38:30;;;;;;;;;1.25;1.00;;;;;13.89;69.31;100842.94;5114698;27;46648;-76
2022/01/03 11:41:00;;;;;;;;;1.50;1.00;;;;;13.89;69.16;100848.22;5102783;27;45647;-78
2022/01/03 11:43:28;;;;;;;;;2.50;1.00;;;;;13.90;69.25;100835.88;5094640;27;45509;-79